createdAt,value
2023-01-28T00:02:13.499Z,61.41
2023-01-28T00:04:41.189Z,60.75
2023-01-28T00:07:08.548Z,60.42
2023-01-28T00:09:35.945Z,60.48
2023-01-28T00:12:03.720Z,60.36
2023-01-28T00:14:31.111Z,60.31
2023-01-28T00:16:58.494Z,60.88
2023-01-28T00:19:26.197Z,60.44
2023-01-28T00:21:53.609Z,60.63
2023-01-28T00:24:21.118Z,61.21
2023-01-28T00:26:48.839Z,60.61
2023-01-28T00:29:16.253Z,60.05
2023-01-28T00:31:44.604Z,60.10
2023-01-28T00:34:12.457Z,60.62
2023-01-28T00:36:42.193Z,60.18
2023-01-28T00:39:15.277Z,60.55
2023-01-28T00:41:43.107Z,60.46
2023-01-28T00:44:10.490Z,60.62
2023-01-28T00:46:37.921Z,61.19
2023-01-28T00:49:05.622Z,60.94
2023-01-28T00:51:34.710Z,61.32
2023-01-28T00:54:02.157Z,61.32
2023-01-28T00:56:29.860Z,61.28
2023-01-28T00:58:57.338Z,61.24
2023-01-28T01:01:27.265Z,61.84
2023-01-28T01:04:02.652Z,61.12
2023-01-28T01:06:32.825Z,60.68
2023-01-28T01:09:01.188Z,60.56
2023-01-28T01:11:28.700Z,60.29
2023-01-28T01:13:57.862Z,60.30
2023-01-28T01:16:28.499Z,60.15
2023-01-28T01:18:56.628Z,60.22
2023-01-28T01:21:27.901Z,59.99
2023-01-28T01:23:55.685Z,59.99
2023-01-28T01:26:23.690Z,59.85
2023-01-28T01:28:51.840Z,58.98
2023-01-28T01:31:20.731Z,59.01
2023-01-28T01:33:50.574Z,58.95
2023-01-28T01:36:19.629Z,59.14
2023-01-28T01:38:47.693Z,58.60
2023-01-28T01:41:40.274Z,58.32
2023-01-28T01:44:46.441Z,58.39
2023-01-28T01:47:14.470Z,58.26
2023-01-28T01:49:42.371Z,58.29
2023-01-28T01:52:17.733Z,58.39
2023-01-28T01:54:47.587Z,59.20
2023-01-28T01:57:17.428Z,59.36
2023-01-28T01:59:45.122Z,59.91
2023-01-28T02:02:12.968Z,59.92
2023-01-28T02:04:44.491Z,59.40
2023-01-28T02:07:16.419Z,59.09
2023-01-28T02:09:44.159Z,59.72
2023-01-28T02:12:14.841Z,59.35
2023-01-28T02:14:45.876Z,59.69
2023-01-28T02:17:15.755Z,59.79
2023-01-28T02:19:48.770Z,59.81
2023-01-28T02:22:47.406Z,60.31
2023-01-28T02:25:33.806Z,59.95
2023-01-28T02:28:16.531Z,60.52
2023-01-28T02:31:11.444Z,60.43
2023-01-28T02:34:08.910Z,60.46
2023-01-28T02:36:44.542Z,60.82
2023-01-28T02:39:20.266Z,60.96
2023-01-28T02:41:52.318Z,60.84
2023-01-28T02:44:20.006Z,60.34
2023-01-28T02:47:06.087Z,60.10
2023-01-28T02:49:39.705Z,59.79
2023-01-28T02:52:54.074Z,59.63
2023-01-28T02:55:45.575Z,60.00
2023-01-28T02:58:19.260Z,60.83
2023-01-28T03:00:51.080Z,61.00
2023-01-28T03:03:36.419Z,60.59
2023-01-28T03:06:11.443Z,60.57
2023-01-28T03:09:02.526Z,60.34
2023-01-28T03:11:52.506Z,60.30
2023-01-28T03:14:39.105Z,61.00
2023-01-28T03:17:30.657Z,61.33
2023-01-28T03:20:16.706Z,60.97
2023-01-28T03:23:07.732Z,60.40
2023-01-28T03:25:54.652Z,60.66
2023-01-28T03:28:40.892Z,60.54
2023-01-28T03:31:33.764Z,60.46
2023-01-28T03:34:21.262Z,61.42
2023-01-28T03:36:55.608Z,60.75
2023-01-28T03:39:30.005Z,61.00
2023-01-28T03:42:13.658Z,61.15
2023-01-28T03:44:54.760Z,61.46
2023-01-28T03:47:24.604Z,61.62
2023-01-28T03:49:54.471Z,61.52
2023-01-28T03:52:24.785Z,60.70
2023-01-28T03:54:53.127Z,60.93
2023-01-28T03:57:23.219Z,60.44
2023-01-28T03:59:52.681Z,60.94
2023-01-28T04:02:21.717Z,61.37
2023-01-28T04:04:50.482Z,61.12
2023-01-28T04:07:18.649Z,60.90
2023-01-28T04:09:51.486Z,61.08
2023-01-28T04:12:18.929Z,60.97
2023-01-28T04:14:47.098Z,61.60
2023-01-28T04:17:14.807Z,60.95
2023-01-28T04:19:43.703Z,61.19
2023-01-28T04:22:12.050Z,61.35
2023-01-28T04:24:40.165Z,60.89
2023-01-28T04:27:07.578Z,60.80
2023-01-28T04:29:34.969Z,60.49
2023-01-28T04:32:04.001Z,60.04
2023-01-28T04:34:32.331Z,60.13
2023-01-28T04:37:00.104Z,59.89
2023-01-28T04:39:28.562Z,59.54
2023-01-28T04:41:58.638Z,59.57
2023-01-28T04:44:26.931Z,60.06
2023-01-28T04:46:55.061Z,60.02
2023-01-28T04:49:23.534Z,59.73
2023-01-28T04:51:51.020Z,60.29
2023-01-28T04:54:18.989Z,59.79
2023-01-28T04:56:46.523Z,60.32
2023-01-28T04:59:14.351Z,60.01
2023-01-28T05:01:42.095Z,60.03
2023-01-28T05:04:09.867Z,60.14
2023-01-28T05:06:37.428Z,60.52
2023-01-28T05:09:05.482Z,60.22
2023-01-28T05:11:33.601Z,59.96
2023-01-28T05:14:02.368Z,59.63
2023-01-28T05:16:32.026Z,59.32
2023-01-28T05:18:59.711Z,59.03
2023-01-28T05:21:30.418Z,59.26
2023-01-28T05:23:58.557Z,58.91
2023-01-28T05:26:26.008Z,58.44
2023-01-28T05:28:53.753Z,58.98
2023-01-28T05:31:21.209Z,59.20
2023-01-28T05:33:48.616Z,59.52
2023-01-28T05:36:17.004Z,60.12
2023-01-28T05:38:44.394Z,60.10
2023-01-28T05:41:11.777Z,59.86
2023-01-28T05:43:39.874Z,59.88
2023-01-28T05:46:08.745Z,60.01
2023-01-28T05:48:36.324Z,60.47
2023-01-28T05:51:05.315Z,60.67
2023-01-28T05:53:32.918Z,61.16
2023-01-28T05:56:00.634Z,60.89
2023-01-28T05:58:30.900Z,60.47
2023-01-28T06:00:59.843Z,60.73
2023-01-28T06:03:27.974Z,60.38
2023-01-28T06:05:56.192Z,60.17
2023-01-28T06:08:23.702Z,60.16
2023-01-28T06:10:51.589Z,60.19
2023-01-28T06:13:19.010Z,60.79
2023-01-28T06:15:51.125Z,60.94
2023-01-28T06:18:19.004Z,61.41
2023-01-28T06:20:49.344Z,61.31
2023-01-28T06:23:16.931Z,61.00
2023-01-28T06:25:44.678Z,61.42
2023-01-28T06:28:12.358Z,61.50
2023-01-28T06:30:39.800Z,61.13
2023-01-28T06:33:07.473Z,61.22
2023-01-28T06:35:35.764Z,60.93
2023-01-28T06:38:04.616Z,62.23
2023-01-28T06:40:32.394Z,63.09
2023-01-28T06:42:59.842Z,62.84
2023-01-28T06:45:27.185Z,62.25
2023-01-28T06:47:54.861Z,62.61
2023-01-28T06:50:22.354Z,62.36
2023-01-28T06:52:49.829Z,61.58
2023-01-28T06:55:17.560Z,61.85
2023-01-28T06:57:47.693Z,61.62
2023-01-28T07:00:16.885Z,61.65
2023-01-28T07:02:44.888Z,60.92
2023-01-28T07:05:12.331Z,61.37
2023-01-28T07:07:41.927Z,61.57
2023-01-28T07:10:11.107Z,62.34
2023-01-28T07:12:38.833Z,61.78
2023-01-28T07:15:06.956Z,61.23
2023-01-28T07:17:34.690Z,61.14
2023-01-28T07:20:02.073Z,61.45
2023-01-28T07:22:29.431Z,61.59
2023-01-28T07:24:58.729Z,60.91
2023-01-28T07:27:26.123Z,61.70
2023-01-28T07:29:53.510Z,61.43
2023-01-28T07:32:21.218Z,61.52
2023-01-28T07:34:48.610Z,61.36
2023-01-28T07:37:16.041Z,61.02
2023-01-28T07:39:43.718Z,61.53
2023-01-28T07:42:11.184Z,60.80
2023-01-28T07:44:39.111Z,60.57
2023-01-28T07:47:07.126Z,60.32
2023-01-28T07:49:34.822Z,61.22
2023-01-28T07:52:02.387Z,61.35
2023-01-28T07:54:30.041Z,60.74
2023-01-28T07:56:57.411Z,60.40
2023-01-28T07:59:24.836Z,59.91
2023-01-28T08:01:55.051Z,60.99
2023-01-28T08:04:23.063Z,60.61
2023-01-28T08:06:52.228Z,60.29
2023-01-28T08:09:19.887Z,60.45
2023-01-28T08:11:47.527Z,60.62
2023-01-28T08:14:14.964Z,60.68
2023-01-28T08:16:42.663Z,60.13
2023-01-28T08:19:10.641Z,60.71
2023-01-28T08:21:38.097Z,59.99
2023-01-28T08:24:06.033Z,59.47
2023-01-28T08:26:33.693Z,60.01
2023-01-28T08:29:01.050Z,60.29
2023-01-28T08:31:29.498Z,60.39
2023-01-28T08:33:57.271Z,60.99
2023-01-28T08:36:24.635Z,61.76
2023-01-28T08:38:54.943Z,61.82
2023-01-28T08:41:22.736Z,62.10
2023-01-28T08:43:50.093Z,61.91
2023-01-28T08:46:17.617Z,61.70
2023-01-28T08:48:45.297Z,62.87
2023-01-28T08:51:12.657Z,61.99
2023-01-28T08:53:40.050Z,62.86
2023-01-28T08:56:07.903Z,62.82
2023-01-28T08:58:35.310Z,62.31
2023-01-28T09:01:06.805Z,62.94
2023-01-28T09:03:36.087Z,63.33
2023-01-28T09:06:04.712Z,63.30
2023-01-28T09:08:32.195Z,62.83
2023-01-28T09:11:00.030Z,62.95
2023-01-28T09:13:28.600Z,62.56
2023-01-28T09:15:56.365Z,61.33
2023-01-28T09:18:24.109Z,62.13
2023-01-28T09:20:51.487Z,62.29
2023-01-28T09:23:18.941Z,62.40
2023-01-28T09:25:46.664Z,61.77
2023-01-28T09:28:14.031Z,62.51
2023-01-28T09:30:41.513Z,62.51
2023-01-28T09:33:09.302Z,63.04
2023-01-28T09:35:37.080Z,62.55
2023-01-28T09:38:04.751Z,62.13
2023-01-28T09:40:42.020Z,62.43
2023-01-28T09:43:45.309Z,62.06
2023-01-28T09:46:15.127Z,62.88
2023-01-28T09:48:51.404Z,62.75
2023-01-28T09:51:46.273Z,62.56
2023-01-28T09:54:40.914Z,63.57
2023-01-28T09:57:14.430Z,63.73
2023-01-28T09:59:41.850Z,63.62
2023-01-28T10:02:28.275Z,63.64
2023-01-28T10:05:02.402Z,63.37
2023-01-28T10:07:47.817Z,63.81
2023-01-28T10:10:24.552Z,64.71
2023-01-28T10:13:10.125Z,64.73
2023-01-28T10:15:43.433Z,63.91
2023-01-28T10:18:17.508Z,63.33
2023-01-28T10:20:51.292Z,62.22
2023-01-28T10:23:39.954Z,61.43
2023-01-28T10:26:21.956Z,62.68
2023-01-28T10:28:54.826Z,62.45
2023-01-28T10:31:24.152Z,62.02
2023-01-28T10:33:51.807Z,62.00
2023-01-28T10:36:19.393Z,61.96
2023-01-28T10:38:47.297Z,61.70
2023-01-28T10:41:20.599Z,60.96
2023-01-28T10:43:48.941Z,60.66
2023-01-28T10:46:23.834Z,59.05
2023-01-28T10:49:13.096Z,60.03
2023-01-28T10:51:42.670Z,59.99
2023-01-28T10:54:29.002Z,59.87
2023-01-28T10:57:02.457Z,60.91
2023-01-28T10:59:32.835Z,61.49
2023-01-28T11:02:05.927Z,61.10
2023-01-28T11:04:35.349Z,61.22
2023-01-28T11:07:06.489Z,66.94
2023-01-28T11:09:38.088Z,68.83
2023-01-28T11:12:14.315Z,64.16
2023-01-28T11:14:51.457Z,63.36
2023-01-28T11:17:20.537Z,56.78
2023-01-28T11:19:48.804Z,56.17
2023-01-28T11:22:38.127Z,56.16
2023-01-28T11:25:16.008Z,56.41
2023-01-28T11:27:47.572Z,55.69
2023-01-28T11:30:24.771Z,57.79
2023-01-28T11:33:17.052Z,58.28
2023-01-28T11:35:58.263Z,58.71
2023-01-28T11:38:26.271Z,60.42
2023-01-28T11:40:55.997Z,59.26
2023-01-28T11:43:28.480Z,58.74
2023-01-28T11:46:20.613Z,59.37
2023-01-28T11:49:05.362Z,59.78
2023-01-28T11:51:59.970Z,59.94
2023-01-28T11:54:37.006Z,60.18
2023-01-28T11:57:24.176Z,59.21
2023-01-28T11:59:54.524Z,59.38
2023-01-28T12:02:44.724Z,59.31
2023-01-28T12:05:28.692Z,58.56
2023-01-28T12:08:20.660Z,59.32
2023-01-28T12:11:19.129Z,59.21
2023-01-28T12:14:28.709Z,59.16
2023-01-28T12:17:06.009Z,58.74
2023-01-28T12:19:42.142Z,58.94
2023-01-28T12:22:26.646Z,58.74
2023-01-28T12:25:39.390Z,59.30
2023-01-28T12:28:18.365Z,59.31
2023-01-28T12:30:48.712Z,59.37
2023-01-28T12:33:45.333Z,59.08
2023-01-28T12:36:37.598Z,58.57
2023-01-28T12:39:20.264Z,59.82
2023-01-28T12:41:51.841Z,60.07
2023-01-28T12:44:25.738Z,59.74
2023-01-28T12:47:00.588Z,59.94
2023-01-28T12:49:48.845Z,58.80
2023-01-28T12:52:23.397Z,59.29
2023-01-28T12:55:14.687Z,59.01
2023-01-28T12:57:42.178Z,58.01
2023-01-28T13:00:25.292Z,57.91
2023-01-28T13:03:06.845Z,58.52
2023-01-28T13:05:38.374Z,58.34
2023-01-28T13:08:18.319Z,58.39
2023-01-28T13:10:46.839Z,58.88
2023-01-28T13:13:34.956Z,58.01
2023-01-28T13:16:04.466Z,58.56
2023-01-28T13:18:41.415Z,59.21
2023-01-28T13:21:17.071Z,58.98
2023-01-28T13:23:48.972Z,58.57
2023-01-28T13:26:19.648Z,58.24
2023-01-28T13:28:49.067Z,58.22
2023-01-28T13:31:19.616Z,57.73
2023-01-28T13:33:56.366Z,57.51
2023-01-28T13:36:27.172Z,58.25
2023-01-28T13:39:07.516Z,58.13
2023-01-28T13:41:44.895Z,57.80
2023-01-28T13:44:18.297Z,58.48
2023-01-28T13:46:45.984Z,58.06
2023-01-28T13:49:17.316Z,58.50
2023-01-28T13:51:56.739Z,60.05
2023-01-28T13:54:25.086Z,59.00
2023-01-28T13:57:01.496Z,60.36
2023-01-28T13:59:35.160Z,60.05
2023-01-28T14:02:40.329Z,59.92
2023-01-28T14:05:45.345Z,60.16
2023-01-28T14:08:53.894Z,59.57
2023-01-28T14:11:53.561Z,59.87
2023-01-28T14:14:38.250Z,59.90
2023-01-28T14:17:43.237Z,59.77
2023-01-28T14:20:18.376Z,59.45
2023-01-28T14:22:46.702Z,60.46
2023-01-28T14:25:17.552Z,60.33
2023-01-28T14:27:48.089Z,61.19
2023-01-28T14:30:37.701Z,62.02
2023-01-28T14:33:10.039Z,61.19
2023-01-28T14:35:39.984Z,61.62
2023-01-28T14:38:09.380Z,77.03
2023-01-28T14:40:38.531Z,62.56
2023-01-28T14:43:08.369Z,60.09
2023-01-28T14:45:55.477Z,59.92
2023-01-28T14:48:48.416Z,59.59
2023-01-28T14:51:34.527Z,60.51
2023-01-28T14:54:43.818Z,58.73
2023-01-28T14:57:39.553Z,59.54
2023-01-28T15:00:22.175Z,59.30
2023-01-28T15:02:49.699Z,59.34
2023-01-28T15:05:21.583Z,59.44
2023-01-28T15:07:49.266Z,59.30
2023-01-28T15:10:21.302Z,58.96
2023-01-28T15:12:52.662Z,59.11
2023-01-28T15:15:20.302Z,59.09
2023-01-28T15:17:48.388Z,59.15
2023-01-28T15:20:21.418Z,59.46
2023-01-28T15:22:50.039Z,59.00
2023-01-28T15:25:19.464Z,59.46
2023-01-28T15:27:47.712Z,59.82
2023-01-28T15:30:30.159Z,59.28
2023-01-28T15:33:13.583Z,60.28
2023-01-28T15:35:48.690Z,59.66
2023-01-28T15:38:17.898Z,58.64
2023-01-28T15:40:48.885Z,59.26
2023-01-28T15:43:29.001Z,59.20
2023-01-28T15:45:58.314Z,59.78
2023-01-28T15:48:28.587Z,60.73
2023-01-28T15:51:01.689Z,60.31
2023-01-28T15:53:33.672Z,60.29
2023-01-28T15:56:07.138Z,60.81
2023-01-28T15:58:37.319Z,60.88
2023-01-28T16:01:10.746Z,59.94
2023-01-28T16:03:40.825Z,60.52
2023-01-28T16:06:11.369Z,59.91
2023-01-28T16:08:47.686Z,60.03
2023-01-28T16:11:25.317Z,61.94
2023-01-28T16:13:53.322Z,61.45
2023-01-28T16:16:33.087Z,61.82
2023-01-28T16:19:03.206Z,61.81
2023-01-28T16:21:44.811Z,61.86
2023-01-28T16:24:32.574Z,61.41
2023-01-28T16:27:07.187Z,61.87
2023-01-28T16:29:35.556Z,62.27
2023-01-28T16:32:03.789Z,62.30
2023-01-28T16:34:31.410Z,62.73
2023-01-28T16:37:00.187Z,62.70
2023-01-28T16:39:27.728Z,62.66
2023-01-28T16:41:56.942Z,62.52
2023-01-28T16:44:24.734Z,63.47
2023-01-28T16:46:52.481Z,62.90
2023-01-28T16:49:19.992Z,63.65
2023-01-28T16:51:47.673Z,63.56
2023-01-28T16:54:16.123Z,63.14
2023-01-28T16:56:46.518Z,63.46
2023-01-28T16:59:16.296Z,65.22
2023-01-28T17:01:44.592Z,64.78
2023-01-28T17:04:13.277Z,64.72
2023-01-28T17:06:43.366Z,63.80
2023-01-28T17:09:14.837Z,63.42
2023-01-28T17:11:42.613Z,64.11
2023-01-28T17:14:10.803Z,64.70
2023-01-28T17:16:38.516Z,64.13
2023-01-28T17:19:06.515Z,62.99
2023-01-28T17:21:33.976Z,63.22
2023-01-28T17:24:01.812Z,63.86
2023-01-28T17:26:29.697Z,63.54
2023-01-28T17:28:57.149Z,62.79
2023-01-28T17:31:26.313Z,62.36
2023-01-28T17:33:55.902Z,61.60
2023-01-28T17:36:24.818Z,61.87
2023-01-28T17:38:52.591Z,62.02
2023-01-28T17:41:20.905Z,61.18
2023-01-28T17:43:55.355Z,62.20
2023-01-28T17:46:24.528Z,61.41
2023-01-28T17:48:52.308Z,61.19
2023-01-28T17:51:19.972Z,60.63
2023-01-28T17:53:48.973Z,61.06
2023-01-28T17:56:21.936Z,60.34
2023-01-28T17:58:53.943Z,60.10
2023-01-28T18:01:22.259Z,61.47
2023-01-28T18:03:49.967Z,60.93
2023-01-28T18:06:18.066Z,61.49
2023-01-28T18:08:45.805Z,60.91
2023-01-28T18:11:15.320Z,60.90
2023-01-28T18:13:43.171Z,61.21
2023-01-28T18:16:17.964Z,60.94
2023-01-28T18:18:46.741Z,60.35
2023-01-28T18:21:46.407Z,61.03
2023-01-28T18:24:18.215Z,60.51
2023-01-28T18:26:45.674Z,61.21
2023-01-28T18:29:16.768Z,61.29
2023-01-28T18:31:44.762Z,61.43
2023-01-28T18:34:12.265Z,60.80
2023-01-28T18:36:39.693Z,61.14
2023-01-28T18:39:09.143Z,60.36
2023-01-28T18:41:36.801Z,59.90
2023-01-28T18:44:04.727Z,60.10
2023-01-28T18:46:32.475Z,59.83
2023-01-28T18:49:00.148Z,60.68
2023-01-28T18:51:30.448Z,59.47
2023-01-28T18:53:59.174Z,59.69
2023-01-28T18:56:28.136Z,60.04
2023-01-28T18:59:00.469Z,60.02
2023-01-28T19:01:29.280Z,59.46
2023-01-28T19:03:57.831Z,59.46
2023-01-28T19:06:26.699Z,60.55
2023-01-28T19:08:56.481Z,60.69
2023-01-28T19:11:25.103Z,60.58
2023-01-28T19:13:53.042Z,60.06
2023-01-28T19:16:21.750Z,61.33
2023-01-28T19:18:54.204Z,61.38
2023-01-28T19:21:22.851Z,61.08
2023-01-28T19:23:56.449Z,60.67
2023-01-28T19:26:25.023Z,60.96
2023-01-28T19:28:52.792Z,61.80
2023-01-28T19:31:21.521Z,62.16
2023-01-28T19:33:53.909Z,62.82
2023-01-28T19:36:22.019Z,62.38
2023-01-28T19:38:49.695Z,62.45
2023-01-28T19:41:17.479Z,62.58
2023-01-28T19:43:45.272Z,62.71
2023-01-28T19:46:16.156Z,63.13
2023-01-28T19:48:44.564Z,63.70
2023-01-28T19:51:13.153Z,63.28
2023-01-28T19:53:41.952Z,62.29
2023-01-28T19:56:12.440Z,62.14
2023-01-28T19:58:42.032Z,62.40
2023-01-28T20:01:12.672Z,62.94
2023-01-28T20:03:40.766Z,62.13
2023-01-28T20:06:11.720Z,61.63
2023-01-28T20:08:39.361Z,61.38
2023-01-28T20:11:09.815Z,61.73
2023-01-28T20:13:38.502Z,61.35
2023-01-28T20:16:07.682Z,60.98
2023-01-28T20:18:35.547Z,62.93
2023-01-28T20:21:05.336Z,61.74
2023-01-28T20:23:32.876Z,60.89
2023-01-28T20:26:03.396Z,60.54
2023-01-28T20:28:30.996Z,59.90
2023-01-28T20:31:04.946Z,59.62
2023-01-28T20:33:32.934Z,59.72
2023-01-28T20:36:02.038Z,59.25
2023-01-28T20:38:30.051Z,59.11
2023-01-28T20:40:57.805Z,59.24
2023-01-28T20:43:26.168Z,59.39
2023-01-28T20:45:55.920Z,59.45
2023-01-28T20:48:23.664Z,58.86
2023-01-28T20:50:51.085Z,58.85
2023-01-28T20:53:18.517Z,58.46
2023-01-28T20:55:55.839Z,58.38
2023-01-28T20:58:23.309Z,58.55
2023-01-28T21:00:51.151Z,59.08
2023-01-28T21:03:19.408Z,58.71
2023-01-28T21:05:47.892Z,58.17
2023-01-28T21:08:16.602Z,58.93
2023-01-28T21:10:44.174Z,58.78
2023-01-28T21:13:13.669Z,59.14
2023-01-28T21:15:42.448Z,58.87
2023-01-28T21:18:09.853Z,59.07
2023-01-28T21:20:38.136Z,58.88
2023-01-28T21:23:05.799Z,59.47
2023-01-28T21:25:33.193Z,60.47
2023-01-28T21:28:00.607Z,60.68
2023-01-28T21:30:28.354Z,60.89
2023-01-28T21:32:55.733Z,60.87
2023-01-28T21:35:23.512Z,61.53
2023-01-28T21:37:51.221Z,60.94
2023-01-28T21:40:18.871Z,61.24
2023-01-28T21:42:47.246Z,61.82
2023-01-28T21:45:15.040Z,61.83
2023-01-28T21:47:42.511Z,61.48
2023-01-28T21:50:10.472Z,61.62
2023-01-28T21:52:38.169Z,61.04
2023-01-28T21:55:05.951Z,60.47
2023-01-28T21:57:33.454Z,60.62
2023-01-28T22:00:01.546Z,60.53
2023-01-28T22:02:39.639Z,60.63
2023-01-28T22:05:07.580Z,60.46
2023-01-28T22:07:34.956Z,61.35
2023-01-28T22:10:02.403Z,61.96
2023-01-28T22:12:30.079Z,61.76
2023-01-28T22:14:57.541Z,61.45
2023-01-28T22:17:25.707Z,61.28
2023-01-28T22:19:53.443Z,61.72
2023-01-28T22:22:20.826Z,62.23
2023-01-28T22:24:48.228Z,62.04
2023-01-28T22:27:16.089Z,61.77
2023-01-28T22:29:43.453Z,62.09
2023-01-28T22:32:10.902Z,61.36
2023-01-28T22:34:38.594Z,62.64
2023-01-28T22:37:07.133Z,62.65
2023-01-28T22:39:34.556Z,62.38
2023-01-28T22:42:02.242Z,62.63
2023-01-28T22:44:29.830Z,61.51
2023-01-28T22:46:57.268Z,61.01
2023-01-28T22:49:26.720Z,62.00
2023-01-28T22:51:54.118Z,61.01
2023-01-28T22:54:21.539Z,60.60
2023-01-28T22:56:49.212Z,60.73
2023-01-28T22:59:16.568Z,62.04
2023-01-28T23:04:12.244Z,62.28
2023-01-28T23:06:39.701Z,61.99
2023-01-28T23:09:07.465Z,61.38
2023-01-28T23:11:35.659Z,62.21
2023-01-28T23:14:22.488Z,60.83
2023-01-28T23:17:08.871Z,61.13
2023-01-28T23:19:54.685Z,61.00
2023-01-28T23:22:47.349Z,61.33
2023-01-28T23:25:15.289Z,61.22
2023-01-28T23:27:43.771Z,61.20
2023-01-28T23:30:12.035Z,60.24
2023-01-28T23:32:58.326Z,60.60
2023-01-28T23:35:26.049Z,61.26
2023-01-28T23:37:54.196Z,61.89
2023-01-28T23:40:24.395Z,61.68
2023-01-28T23:42:52.546Z,61.23
2023-01-28T23:45:20.853Z,60.50
2023-01-28T23:47:48.278Z,60.82
2023-01-28T23:50:16.720Z,61.05
2023-01-28T23:52:44.324Z,61.41
2023-01-28T23:55:11.693Z,61.87
2023-01-28T23:57:39.394Z,63.17
